SWA6299 SKRG-SPST
Flight info
| Callsign | SWA6299 |
|---|---|
| Flight time | 1h 57m |
| Altitude | 35000 |
| Route | ISVAT2B ISVAT DCT MQU UL305 GIR/N0470F360 UL305 VUKOK/N0467F370 DCT IKARO DCT UKMAN |
| Aircraft | B738/M-SDE2E3FGHIRWXY/LB1 |
Departure
| Time | 2026-05-09 00:09 |
|---|---|
| Airport | Jose Maria Córdova International Airport (SKRG) |
Arrival
| Time | 2026-05-09 02:06 |
|---|---|
| Airport | Cadete FAP Guillermo Del Castillo Paredes Airport (SPST) |
| Time | Latitude | Longitude | Altitude | Speed | Heading |
|---|---|---|---|---|---|
| 2026-05-09 00:01 | 6.16902 | -75.42571 | 6990 ft | 16 kts | 180° |
| 2026-05-09 00:01 | 6.16780 | -75.42571 | 6985 ft | 17 kts | 180° |
| 2026-05-09 00:01 | 6.16704 | -75.42590 | 6983 ft | 11 kts | 227° |
| 2026-05-09 00:02 | 6.16690 | -75.42657 | 6985 ft | 6 kts | 252° |
| 2026-05-09 00:02 | 6.16666 | -75.42648 | 6983 ft | 5 kts | 73° |
| 2026-05-09 00:02 | 6.16687 | -75.42608 | 6983 ft | 10 kts | 61° |
| 2026-05-09 00:02 | 6.16749 | -75.42573 | 6984 ft | 10 kts | 2° |
| 2026-05-09 00:03 | 6.16831 | -75.42573 | 6987 ft | 12 kts | 359° |
| 2026-05-09 00:03 | 6.16920 | -75.42574 | 6991 ft | 13 kts | 4° |
| 2026-05-09 00:03 | 6.16961 | -75.42503 | 6990 ft | 14 kts | 121° |
| 2026-05-09 00:03 | 6.16858 | -75.42483 | 6985 ft | 17 kts | 180° |
| 2026-05-09 00:04 | 6.16721 | -75.42482 | 6979 ft | 21 kts | 180° |
| 2026-05-09 00:04 | 6.16562 | -75.42481 | 6973 ft | 23 kts | 179° |
| 2026-05-09 00:04 | 6.16393 | -75.42477 | 6970 ft | 24 kts | 179° |
| 2026-05-09 00:04 | 6.16228 | -75.42475 | 6970 ft | 23 kts | 180° |
| 2026-05-09 00:05 | 6.16069 | -75.42475 | 6970 ft | 22 kts | 180° |
| 2026-05-09 00:05 | 6.15917 | -75.42476 | 6969 ft | 21 kts | 180° |
| 2026-05-09 00:05 | 6.15768 | -75.42475 | 6966 ft | 20 kts | 179° |
| 2026-05-09 00:05 | 6.15624 | -75.42473 | 6963 ft | 21 kts | 179° |
| 2026-05-09 00:06 | 6.15475 | -75.42472 | 6960 ft | 21 kts | 180° |
| 2026-05-09 00:06 | 6.15330 | -75.42471 | 6960 ft | 20 kts | 180° |
| 2026-05-09 00:06 | 6.15188 | -75.42472 | 6958 ft | 20 kts | 180° |
| 2026-05-09 00:06 | 6.15044 | -75.42471 | 6953 ft | 21 kts | 179° |
| 2026-05-09 00:07 | 6.14926 | -75.42434 | 6944 ft | 16 kts | 108° |
| 2026-05-09 00:07 | 6.14949 | -75.42330 | 6944 ft | 14 kts | 53° |
| 2026-05-09 00:07 | 6.15055 | -75.42303 | 6951 ft | 27 kts | 1° |
| 2026-05-09 00:07 | 6.15143 | -75.42303 | 6956 ft | 0 kts | 0° |
| 2026-05-09 00:08 | 6.15160 | -75.42303 | 6957 ft | 18 kts | 0° |
| 2026-05-09 00:08 | 6.15561 | -75.42308 | 6957 ft | 95 kts | 359° |
| 2026-05-09 00:08 | 6.16444 | -75.42313 | 6966 ft | 157 kts | 360° |
| 2026-05-09 00:08 | 6.17678 | -75.42311 | 7166 ft | 189 kts | 1° |
| 2026-05-09 00:09 | 6.18995 | -75.42211 | 7795 ft | 196 kts | 7° |
| 2026-05-09 00:09 | 6.20371 | -75.42036 | 8257 ft | 208 kts | 7° |
| 2026-05-09 00:09 | 6.21842 | -75.41854 | 8836 ft | 216 kts | 7° |
| 2026-05-09 00:09 | 6.23326 | -75.41672 | 9529 ft | 220 kts | 9° |
| 2026-05-09 00:10 | 6.24744 | -75.41145 | 10176 ft | 227 kts | 39° |
| 2026-05-09 00:10 | 6.25627 | -75.39828 | 10707 ft | 239 kts | 78° |
| 2026-05-09 00:10 | 6.25493 | -75.38178 | 11429 ft | 245 kts | 114° |
| 2026-05-09 00:10 | 6.24409 | -75.36788 | 11784 ft | 270 kts | 141° |
| 2026-05-09 00:11 | 6.22663 | -75.35838 | 12088 ft | 296 kts | 157° |
| 2026-05-09 00:11 | 6.20690 | -75.35038 | 12368 ft | 320 kts | 156° |
| 2026-05-09 00:11 | 6.18586 | -75.34128 | 12697 ft | 339 kts | 156° |
| 2026-05-09 00:11 | 6.16428 | -75.33189 | 13496 ft | 343 kts | 156° |
| 2026-05-09 00:12 | 6.14209 | -75.32238 | 14199 ft | 349 kts | 156° |
| 2026-05-09 00:12 | 6.12006 | -75.31296 | 14968 ft | 352 kts | 156° |
| 2026-05-09 00:12 | 6.09734 | -75.30320 | 15699 ft | 355 kts | 156° |
| 2026-05-09 00:12 | 6.07462 | -75.29345 | 16398 ft | 359 kts | 156° |
| 2026-05-09 00:13 | 6.05168 | -75.28361 | 17063 ft | 363 kts | 156° |
| 2026-05-09 00:13 | 6.02847 | -75.27366 | 17642 ft | 367 kts | 157° |
| 2026-05-09 00:13 | 6.00494 | -75.26357 | 18238 ft | 371 kts | 157° |
| 2026-05-09 00:13 | 5.98137 | -75.25346 | 18833 ft | 374 kts | 157° |
| 2026-05-09 00:14 | 5.95738 | -75.24318 | 19402 ft | 377 kts | 157° |
| 2026-05-09 00:14 | 5.93336 | -75.23289 | 20057 ft | 378 kts | 157° |
| 2026-05-09 00:14 | 5.90889 | -75.22240 | 20576 ft | 383 kts | 157° |
| 2026-05-09 00:14 | 5.88451 | -75.21195 | 21140 ft | 386 kts | 156° |
| 2026-05-09 00:15 | 5.85981 | -75.20136 | 21653 ft | 389 kts | 156° |
| 2026-05-09 00:15 | 5.83506 | -75.19076 | 22202 ft | 392 kts | 156° |
| 2026-05-09 00:15 | 5.80971 | -75.17989 | 22675 ft | 396 kts | 156° |
| 2026-05-09 00:15 | 5.78453 | -75.16910 | 23103 ft | 400 kts | 156° |
| 2026-05-09 00:16 | 5.76742 | -75.16177 | 23456 ft | 401 kts | 156° |
| 2026-05-09 00:16 | 5.73306 | -75.14706 | 23966 ft | 407 kts | 156° |
| 2026-05-09 00:16 | 5.70699 | -75.13589 | 24465 ft | 408 kts | 156° |
| 2026-05-09 00:16 | 5.68088 | -75.12471 | 24916 ft | 409 kts | 156° |
| 2026-05-09 00:17 | 5.65470 | -75.11350 | 25291 ft | 413 kts | 156° |
| 2026-05-09 00:17 | 5.62843 | -75.10225 | 25710 ft | 415 kts | 157° |
| 2026-05-09 00:17 | 5.60175 | -75.09083 | 26106 ft | 418 kts | 157° |
| 2026-05-09 00:17 | 5.57524 | -75.07948 | 26452 ft | 421 kts | 157° |
| 2026-05-09 00:18 | 5.54786 | -75.06776 | 26765 ft | 425 kts | 157° |
| 2026-05-09 00:18 | 5.53008 | -75.06015 | 27006 ft | 426 kts | 157° |
| 2026-05-09 00:18 | 5.49359 | -75.04453 | 27488 ft | 428 kts | 157° |
| 2026-05-09 00:18 | 5.46596 | -75.03271 | 27784 ft | 431 kts | 157° |
| 2026-05-09 00:19 | 5.43813 | -75.02080 | 28083 ft | 434 kts | 157° |
| 2026-05-09 00:19 | 5.41046 | -75.00897 | 28402 ft | 436 kts | 157° |
| 2026-05-09 00:19 | 5.38217 | -74.99686 | 28706 ft | 438 kts | 157° |
| 2026-05-09 00:19 | 5.35413 | -74.98487 | 29030 ft | 439 kts | 157° |
| 2026-05-09 00:20 | 5.32625 | -74.97295 | 29368 ft | 439 kts | 157° |
| 2026-05-09 00:20 | 5.29784 | -74.96079 | 29644 ft | 442 kts | 157° |
| 2026-05-09 00:20 | 5.26907 | -74.94850 | 29917 ft | 444 kts | 157° |
| 2026-05-09 00:20 | 5.24062 | -74.93692 | 30172 ft | 445 kts | 161° |
| 2026-05-09 00:21 | 5.21066 | -74.92735 | 30449 ft | 446 kts | 166° |
| 2026-05-09 00:21 | 5.18049 | -74.92133 | 30697 ft | 446 kts | 174° |
| 2026-05-09 00:21 | 5.14970 | -74.91894 | 30961 ft | 447 kts | 178° |
| 2026-05-09 00:21 | 5.11793 | -74.91740 | 31185 ft | 449 kts | 178° |
| 2026-05-09 00:22 | 5.08671 | -74.91552 | 31430 ft | 451 kts | 177° |
| 2026-05-09 00:22 | 5.05538 | -74.91347 | 31692 ft | 452 kts | 178° |
| 2026-05-09 00:22 | 5.02381 | -74.91153 | 31925 ft | 453 kts | 178° |
| 2026-05-09 00:22 | 4.99233 | -74.90973 | 32133 ft | 455 kts | 178° |
| 2026-05-09 00:23 | 4.96071 | -74.90794 | 32350 ft | 457 kts | 178° |
| 2026-05-09 00:23 | 4.92873 | -74.90613 | 32567 ft | 458 kts | 178° |
| 2026-05-09 00:23 | 4.89675 | -74.90432 | 32776 ft | 460 kts | 178° |
| 2026-05-09 00:23 | 4.86481 | -74.90253 | 32967 ft | 461 kts | 178° |
| 2026-05-09 00:24 | 4.83270 | -74.90075 | 33164 ft | 463 kts | 178° |
| 2026-05-09 00:24 | 4.80085 | -74.89898 | 33343 ft | 465 kts | 178° |
| 2026-05-09 00:24 | 4.76836 | -74.89719 | 33518 ft | 466 kts | 178° |
| 2026-05-09 00:24 | 4.73621 | -74.89542 | 33680 ft | 468 kts | 178° |
| 2026-05-09 00:25 | 4.70373 | -74.89363 | 33908 ft | 468 kts | 178° |
| 2026-05-09 00:25 | 4.67143 | -74.89185 | 34208 ft | 466 kts | 178° |
| 2026-05-09 00:25 | 4.63932 | -74.89008 | 34423 ft | 466 kts | 178° |
| 2026-05-09 00:25 | 4.60689 | -74.88829 | 34642 ft | 467 kts | 178° |
| 2026-05-09 00:26 | 4.57470 | -74.88653 | 34874 ft | 466 kts | 178° |
| 2026-05-09 00:26 | 4.54239 | -74.88475 | 35077 ft | 467 kts | 178° |
| 2026-05-09 00:26 | 4.51008 | -74.88298 | 35287 ft | 467 kts | 178° |
| 2026-05-09 00:26 | 4.47767 | -74.88120 | 35471 ft | 467 kts | 178° |
| 2026-05-09 00:27 | 4.44546 | -74.87942 | 35670 ft | 467 kts | 178° |
| 2026-05-09 00:27 | 4.41309 | -74.87765 | 35892 ft | 467 kts | 178° |
| 2026-05-09 00:27 | 4.38090 | -74.87588 | 36055 ft | 468 kts | 178° |
| 2026-05-09 00:27 | 4.34846 | -74.87412 | 36250 ft | 468 kts | 178° |
| 2026-05-09 00:28 | 4.31593 | -74.87233 | 36423 ft | 468 kts | 178° |
| 2026-05-09 00:28 | 4.28371 | -74.87057 | 36671 ft | 467 kts | 178° |
| 2026-05-09 00:28 | 4.25115 | -74.86878 | 36890 ft | 467 kts | 178° |
| 2026-05-09 00:29 | 4.18675 | -74.86861 | 36978 ft | 467 kts | 187° |
| 2026-05-09 00:29 | 4.12303 | -74.87875 | 36983 ft | 464 kts | 191° |
| 2026-05-09 00:30 | 4.05968 | -74.88931 | 36984 ft | 463 kts | 191° |
| 2026-05-09 00:30 | 3.99643 | -74.89992 | 36984 ft | 463 kts | 191° |
| 2026-05-09 00:31 | 3.93299 | -74.91081 | 36983 ft | 466 kts | 191° |
| 2026-05-09 00:31 | 3.86938 | -74.92177 | 36980 ft | 466 kts | 191° |
| 2026-05-09 00:32 | 3.80553 | -74.93281 | 36975 ft | 465 kts | 191° |
| 2026-05-09 00:32 | 3.74206 | -74.94380 | 36969 ft | 465 kts | 191° |
| 2026-05-09 00:33 | 3.67871 | -74.95480 | 36961 ft | 468 kts | 191° |
| 2026-05-09 00:33 | 3.61450 | -74.96594 | 36951 ft | 470 kts | 191° |
| 2026-05-09 00:34 | 3.55030 | -74.97707 | 36939 ft | 467 kts | 191° |
| 2026-05-09 00:34 | 3.48698 | -74.98805 | 36928 ft | 466 kts | 191° |
| 2026-05-09 00:35 | 3.42306 | -74.99915 | 36916 ft | 467 kts | 191° |
| 2026-05-09 00:35 | 3.35901 | -75.01025 | 36904 ft | 467 kts | 191° |
| 2026-05-09 00:36 | 3.29552 | -75.02127 | 36872 ft | 466 kts | 191° |
| 2026-05-09 00:36 | 3.23177 | -75.03234 | 36869 ft | 466 kts | 191° |
| 2026-05-09 00:37 | 3.16823 | -75.04335 | 36866 ft | 467 kts | 191° |
| 2026-05-09 00:37 | 3.10448 | -75.05441 | 36864 ft | 467 kts | 191° |
| 2026-05-09 00:38 | 3.04045 | -75.06551 | 36862 ft | 468 kts | 191° |
| 2026-05-09 00:38 | 2.97638 | -75.07661 | 36862 ft | 469 kts | 191° |
| 2026-05-09 00:39 | 2.91272 | -75.08765 | 36859 ft | 469 kts | 191° |
| 2026-05-09 00:39 | 2.84835 | -75.09881 | 36859 ft | 470 kts | 191° |
| 2026-05-09 00:40 | 2.78416 | -75.10993 | 36859 ft | 471 kts | 191° |
| 2026-05-09 00:40 | 2.71977 | -75.12109 | 36859 ft | 473 kts | 191° |
| 2026-05-09 00:41 | 2.62277 | -75.13790 | 36858 ft | 472 kts | 191° |
| 2026-05-09 00:41 | 2.55845 | -75.14904 | 36857 ft | 473 kts | 191° |
| 2026-05-09 00:42 | 2.49364 | -75.16027 | 36858 ft | 474 kts | 191° |
| 2026-05-09 00:42 | 2.42910 | -75.17145 | 36856 ft | 474 kts | 191° |
| 2026-05-09 00:43 | 2.36471 | -75.18260 | 36854 ft | 472 kts | 191° |
| 2026-05-09 00:43 | 2.29986 | -75.19383 | 36853 ft | 475 kts | 191° |
| 2026-05-09 00:44 | 2.23519 | -75.20503 | 36850 ft | 475 kts | 191° |
| 2026-05-09 00:44 | 2.17047 | -75.21624 | 36847 ft | 474 kts | 191° |
| 2026-05-09 00:45 | 2.10536 | -75.22751 | 36844 ft | 472 kts | 191° |
| 2026-05-09 00:45 | 2.04108 | -75.23864 | 36842 ft | 470 kts | 191° |
| 2026-05-09 00:46 | 1.97707 | -75.24972 | 36840 ft | 472 kts | 191° |
| 2026-05-09 00:46 | 1.91230 | -75.26093 | 36838 ft | 475 kts | 191° |
| 2026-05-09 00:47 | 1.84765 | -75.27212 | 36835 ft | 473 kts | 191° |
| 2026-05-09 00:47 | 1.78290 | -75.28332 | 36835 ft | 471 kts | 191° |
| 2026-05-09 00:48 | 1.71885 | -75.29440 | 36841 ft | 472 kts | 191° |
| 2026-05-09 00:48 | 1.65444 | -75.30555 | 36838 ft | 472 kts | 191° |
| 2026-05-09 00:49 | 1.58988 | -75.31671 | 36836 ft | 472 kts | 191° |
| 2026-05-09 00:49 | 1.52540 | -75.32787 | 36832 ft | 471 kts | 191° |
| 2026-05-09 00:50 | 1.46125 | -75.33896 | 36832 ft | 471 kts | 191° |
| 2026-05-09 00:50 | 1.39684 | -75.35010 | 36833 ft | 471 kts | 191° |
| 2026-05-09 00:51 | 1.33783 | -75.36030 | 36833 ft | 471 kts | 191° |
| 2026-05-09 00:51 | 1.27363 | -75.37140 | 36833 ft | 471 kts | 191° |
| 2026-05-09 00:52 | 1.20934 | -75.38251 | 36833 ft | 472 kts | 191° |
| 2026-05-09 00:52 | 1.14502 | -75.39364 | 36833 ft | 472 kts | 191° |
| 2026-05-09 00:53 | 1.08037 | -75.40482 | 36833 ft | 472 kts | 191° |
| 2026-05-09 00:53 | 1.01626 | -75.41590 | 36833 ft | 472 kts | 191° |
| 2026-05-09 00:54 | 0.95153 | -75.42709 | 36834 ft | 472 kts | 190° |
| 2026-05-09 00:54 | 0.88718 | -75.43822 | 36834 ft | 472 kts | 190° |
| 2026-05-09 00:55 | 0.82248 | -75.44939 | 36834 ft | 471 kts | 190° |
| 2026-05-09 00:55 | 0.75820 | -75.46049 | 36834 ft | 471 kts | 190° |
| 2026-05-09 00:56 | 0.69396 | -75.47160 | 36834 ft | 472 kts | 190° |
| 2026-05-09 00:56 | 0.62964 | -75.48271 | 36833 ft | 472 kts | 190° |
| 2026-05-09 00:57 | 0.56502 | -75.49388 | 36834 ft | 473 kts | 190° |
| 2026-05-09 00:57 | 0.50066 | -75.50500 | 36834 ft | 472 kts | 190° |
| 2026-05-09 00:58 | 0.43596 | -75.51619 | 36842 ft | 473 kts | 190° |
| 2026-05-09 00:58 | 0.37165 | -75.52731 | 36838 ft | 473 kts | 190° |
| 2026-05-09 00:59 | 0.30698 | -75.53848 | 36838 ft | 473 kts | 190° |
| 2026-05-09 00:59 | 0.24222 | -75.54967 | 36839 ft | 473 kts | 190° |
| 2026-05-09 01:00 | 0.17775 | -75.56081 | 36839 ft | 473 kts | 190° |
| 2026-05-09 01:00 | 0.11325 | -75.57197 | 36839 ft | 473 kts | 190° |
| 2026-05-09 01:01 | 0.04854 | -75.58314 | 36832 ft | 473 kts | 190° |
| 2026-05-09 01:01 | -0.01601 | -75.59416 | 36831 ft | 473 kts | 190° |
| 2026-05-09 01:02 | -0.08062 | -75.60519 | 36832 ft | 473 kts | 190° |
| 2026-05-09 01:02 | -0.14541 | -75.61626 | 36832 ft | 474 kts | 190° |
| 2026-05-09 01:03 | -0.21008 | -75.62730 | 36832 ft | 473 kts | 190° |
| 2026-05-09 01:03 | -0.27463 | -75.63834 | 36832 ft | 473 kts | 190° |
| 2026-05-09 01:04 | -0.33933 | -75.64939 | 36832 ft | 473 kts | 190° |
| 2026-05-09 01:04 | -0.40390 | -75.66043 | 36832 ft | 473 kts | 190° |
| 2026-05-09 01:05 | -0.46845 | -75.67146 | 36842 ft | 473 kts | 190° |
| 2026-05-09 01:06 | -0.56552 | -75.68805 | 36869 ft | 474 kts | 190° |
| 2026-05-09 01:06 | -0.63012 | -75.69910 | 36868 ft | 474 kts | 190° |
| 2026-05-09 01:07 | -0.69515 | -75.71021 | 36868 ft | 474 kts | 190° |
| 2026-05-09 01:07 | -0.75966 | -75.72124 | 36869 ft | 473 kts | 190° |
| 2026-05-09 01:08 | -0.82421 | -75.73226 | 36870 ft | 474 kts | 190° |
| 2026-05-09 01:08 | -0.88931 | -75.74339 | 36870 ft | 474 kts | 190° |
| 2026-05-09 01:09 | -0.95396 | -75.75444 | 36871 ft | 474 kts | 190° |
| 2026-05-09 01:09 | -1.01873 | -75.76552 | 36871 ft | 474 kts | 190° |
| 2026-05-09 01:10 | -1.08365 | -75.77661 | 36873 ft | 474 kts | 191° |
| 2026-05-09 01:10 | -1.14826 | -75.78767 | 36874 ft | 474 kts | 191° |
| 2026-05-09 01:11 | -1.21281 | -75.79870 | 36876 ft | 475 kts | 191° |
| 2026-05-09 01:11 | -1.27783 | -75.80982 | 36876 ft | 475 kts | 191° |
| 2026-05-09 01:12 | -1.34274 | -75.82092 | 36878 ft | 475 kts | 191° |
| 2026-05-09 01:12 | -1.40779 | -75.83204 | 36879 ft | 475 kts | 191° |
| 2026-05-09 01:13 | -1.47231 | -75.84306 | 36881 ft | 475 kts | 191° |
| 2026-05-09 01:13 | -1.53756 | -75.85423 | 36878 ft | 475 kts | 191° |
| 2026-05-09 01:14 | -1.60248 | -75.86533 | 36880 ft | 475 kts | 191° |
| 2026-05-09 01:14 | -1.66718 | -75.87640 | 36882 ft | 475 kts | 191° |
| 2026-05-09 01:15 | -1.73204 | -75.88750 | 36883 ft | 476 kts | 191° |
| 2026-05-09 01:15 | -1.79712 | -75.89863 | 36885 ft | 476 kts | 191° |
| 2026-05-09 01:16 | -1.86190 | -75.90971 | 36887 ft | 476 kts | 191° |
| 2026-05-09 01:16 | -1.92695 | -75.92084 | 36889 ft | 475 kts | 191° |
| 2026-05-09 01:17 | -2.02452 | -75.93685 | 36891 ft | 476 kts | 187° |
| 2026-05-09 01:17 | -2.09052 | -75.94206 | 36894 ft | 477 kts | 185° |
| 2026-05-09 01:18 | -2.15629 | -75.94753 | 36895 ft | 477 kts | 186° |
| 2026-05-09 01:18 | -2.22212 | -75.95333 | 36897 ft | 477 kts | 186° |
| 2026-05-09 01:19 | -2.28774 | -75.95909 | 36898 ft | 477 kts | 186° |
| 2026-05-09 01:19 | -2.35366 | -75.96493 | 36937 ft | 476 kts | 186° |
| 2026-05-09 01:20 | -2.41929 | -75.97076 | 37005 ft | 476 kts | 186° |
| 2026-05-09 01:20 | -2.48514 | -75.97662 | 37010 ft | 478 kts | 186° |
| 2026-05-09 01:21 | -2.55091 | -75.98249 | 37011 ft | 476 kts | 186° |
| 2026-05-09 01:21 | -2.61676 | -75.98837 | 37012 ft | 475 kts | 186° |
| 2026-05-09 01:22 | -2.68227 | -75.99421 | 37012 ft | 476 kts | 186° |
| 2026-05-09 01:22 | -2.74802 | -76.00008 | 37012 ft | 476 kts | 186° |
| 2026-05-09 01:23 | -2.81355 | -76.00592 | 37013 ft | 475 kts | 186° |
| 2026-05-09 01:23 | -2.87936 | -76.01180 | 37012 ft | 475 kts | 187° |
| 2026-05-09 01:24 | -2.94506 | -76.01766 | 36909 ft | 476 kts | 187° |
| 2026-05-09 01:24 | -3.01053 | -76.02351 | 36905 ft | 473 kts | 187° |
| 2026-05-09 01:25 | -3.07585 | -76.02935 | 36903 ft | 474 kts | 187° |
| 2026-05-09 01:25 | -3.14130 | -76.03519 | 36901 ft | 474 kts | 187° |
| 2026-05-09 01:26 | -3.20677 | -76.04104 | 36899 ft | 474 kts | 187° |
| 2026-05-09 01:26 | -3.27210 | -76.04687 | 36897 ft | 474 kts | 187° |
| 2026-05-09 01:27 | -3.33727 | -76.05270 | 36895 ft | 474 kts | 187° |
| 2026-05-09 01:27 | -3.40254 | -76.05851 | 36893 ft | 474 kts | 187° |
| 2026-05-09 01:28 | -3.46813 | -76.06440 | 36891 ft | 474 kts | 187° |
| 2026-05-09 01:28 | -3.53338 | -76.07024 | 36888 ft | 474 kts | 187° |
| 2026-05-09 01:29 | -3.59864 | -76.07609 | 36886 ft | 474 kts | 187° |
| 2026-05-09 01:29 | -3.66437 | -76.08198 | 36883 ft | 474 kts | 187° |
| 2026-05-09 01:30 | -3.72945 | -76.08781 | 36881 ft | 474 kts | 187° |
| 2026-05-09 01:30 | -3.79520 | -76.09369 | 36874 ft | 474 kts | 187° |
| 2026-05-09 01:31 | -3.86064 | -76.09956 | 36871 ft | 474 kts | 187° |
| 2026-05-09 01:31 | -3.92581 | -76.10540 | 36868 ft | 474 kts | 187° |
| 2026-05-09 01:32 | -3.99119 | -76.11126 | 36865 ft | 474 kts | 187° |
| 2026-05-09 01:32 | -4.05673 | -76.11714 | 36862 ft | 474 kts | 187° |
| 2026-05-09 01:33 | -4.11170 | -76.12207 | 36861 ft | 474 kts | 187° |
| 2026-05-09 01:33 | -4.18805 | -76.12891 | 36859 ft | 474 kts | 187° |
| 2026-05-09 01:34 | -4.25350 | -76.13477 | 36856 ft | 474 kts | 187° |
| 2026-05-09 01:34 | -4.31844 | -76.14058 | 36854 ft | 473 kts | 187° |
| 2026-05-09 01:35 | -4.38401 | -76.14645 | 36852 ft | 473 kts | 187° |
| 2026-05-09 01:35 | -4.44943 | -76.15231 | 36849 ft | 473 kts | 187° |
| 2026-05-09 01:36 | -4.51445 | -76.15813 | 36847 ft | 473 kts | 187° |
| 2026-05-09 01:36 | -4.57971 | -76.16399 | 36844 ft | 472 kts | 187° |
| 2026-05-09 01:37 | -4.64492 | -76.16983 | 36842 ft | 472 kts | 187° |
| 2026-05-09 01:37 | -4.71003 | -76.17567 | 36840 ft | 472 kts | 187° |
| 2026-05-09 01:38 | -4.77510 | -76.18150 | 36838 ft | 472 kts | 187° |
| 2026-05-09 01:38 | -4.83998 | -76.18730 | 36836 ft | 471 kts | 187° |
| 2026-05-09 01:39 | -4.90509 | -76.19315 | 36833 ft | 471 kts | 187° |
| 2026-05-09 01:39 | -4.97044 | -76.19902 | 36832 ft | 471 kts | 187° |
| 2026-05-09 01:40 | -5.02428 | -76.20385 | 36830 ft | 470 kts | 187° |
| 2026-05-09 01:40 | -5.08943 | -76.20970 | 36828 ft | 470 kts | 187° |
| 2026-05-09 01:41 | -5.15421 | -76.21551 | 36826 ft | 470 kts | 187° |
| 2026-05-09 01:41 | -5.21932 | -76.22134 | 36824 ft | 470 kts | 188° |
| 2026-05-09 01:42 | -5.28406 | -76.22716 | 36822 ft | 470 kts | 187° |
| 2026-05-09 01:42 | -5.34911 | -76.22647 | 36820 ft | 474 kts | 174° |
| 2026-05-09 01:43 | -5.41263 | -76.20868 | 36819 ft | 479 kts | 163° |
| 2026-05-09 01:43 | -5.47586 | -76.18708 | 36817 ft | 479 kts | 164° |
| 2026-05-09 01:44 | -5.54911 | -76.16284 | 36814 ft | 479 kts | 164° |
| 2026-05-09 01:44 | -5.61212 | -76.14160 | 36812 ft | 479 kts | 164° |
| 2026-05-09 01:45 | -5.67490 | -76.12051 | 36810 ft | 480 kts | 164° |
| 2026-05-09 01:45 | -5.70679 | -76.10977 | 36548 ft | 477 kts | 164° |
| 2026-05-09 01:45 | -5.73800 | -76.09924 | 35848 ft | 475 kts | 164° |
| 2026-05-09 01:46 | -5.76887 | -76.08881 | 35067 ft | 474 kts | 164° |
| 2026-05-09 01:46 | -5.80009 | -76.07828 | 34241 ft | 474 kts | 164° |
| 2026-05-09 01:46 | -5.83117 | -76.06779 | 33391 ft | 473 kts | 164° |
| 2026-05-09 01:46 | -5.86210 | -76.05733 | 32521 ft | 472 kts | 164° |
| 2026-05-09 01:47 | -5.89267 | -76.04701 | 31640 ft | 470 kts | 164° |
| 2026-05-09 01:47 | -5.92343 | -76.03661 | 30728 ft | 468 kts | 164° |
| 2026-05-09 01:47 | -5.95391 | -76.02626 | 29795 ft | 465 kts | 163° |
| 2026-05-09 01:47 | -5.98444 | -76.01586 | 28822 ft | 462 kts | 163° |
| 2026-05-09 01:48 | -6.01451 | -76.00562 | 27906 ft | 459 kts | 163° |
| 2026-05-09 01:48 | -6.04466 | -75.99538 | 27217 ft | 450 kts | 163° |
| 2026-05-09 01:48 | -6.07417 | -75.98541 | 26535 ft | 451 kts | 162° |
| 2026-05-09 01:48 | -6.10373 | -75.97546 | 25832 ft | 453 kts | 162° |
| 2026-05-09 01:49 | -6.13326 | -75.96552 | 25120 ft | 446 kts | 162° |
| 2026-05-09 01:49 | -6.16226 | -75.95573 | 24424 ft | 440 kts | 161° |
| 2026-05-09 01:49 | -6.19171 | -75.94726 | 23989 ft | 442 kts | 168° |
| 2026-05-09 01:49 | -6.22184 | -75.94296 | 23752 ft | 446 kts | 175° |
| 2026-05-09 01:50 | -6.25286 | -75.94280 | 23489 ft | 445 kts | 185° |
| 2026-05-09 01:50 | -6.28308 | -75.94890 | 22939 ft | 436 kts | 198° |
| 2026-05-09 01:50 | -6.31079 | -75.95932 | 22682 ft | 430 kts | 202° |
| 2026-05-09 01:50 | -6.33788 | -75.97304 | 22433 ft | 437 kts | 210° |
| 2026-05-09 01:51 | -6.36365 | -75.98873 | 22182 ft | 438 kts | 211° |
| 2026-05-09 01:51 | -6.38935 | -76.00440 | 21699 ft | 432 kts | 210° |
| 2026-05-09 01:51 | -6.41509 | -76.01973 | 20899 ft | 427 kts | 210° |
| 2026-05-09 01:51 | -6.44022 | -76.03470 | 20108 ft | 423 kts | 210° |
| 2026-05-09 01:52 | -6.46523 | -76.04971 | 19315 ft | 419 kts | 210° |
| 2026-05-09 01:52 | -6.49013 | -76.06471 | 18581 ft | 413 kts | 210° |
| 2026-05-09 01:52 | -6.51429 | -76.07927 | 18083 ft | 402 kts | 210° |
| 2026-05-09 01:52 | -6.53789 | -76.09347 | 17358 ft | 398 kts | 210° |
| 2026-05-09 01:53 | -6.56147 | -76.10765 | 16681 ft | 392 kts | 210° |
| 2026-05-09 01:53 | -6.58452 | -76.12154 | 16103 ft | 384 kts | 210° |
| 2026-05-09 01:53 | -6.60668 | -76.13493 | 15988 ft | 362 kts | 210° |
| 2026-05-09 01:53 | -6.62774 | -76.14766 | 15627 ft | 339 kts | 210° |
| 2026-05-09 01:54 | -6.64712 | -76.15936 | 15314 ft | 322 kts | 210° |
| 2026-05-09 01:54 | -6.66606 | -76.17079 | 15027 ft | 313 kts | 210° |
| 2026-05-09 01:54 | -6.68445 | -76.18189 | 14632 ft | 309 kts | 211° |
| 2026-05-09 01:54 | -6.70291 | -76.19305 | 14190 ft | 308 kts | 211° |
| 2026-05-09 01:55 | -6.72124 | -76.20412 | 13779 ft | 306 kts | 211° |
| 2026-05-09 01:55 | -6.73928 | -76.21502 | 13361 ft | 304 kts | 211° |
| 2026-05-09 01:55 | -6.75729 | -76.22591 | 12932 ft | 302 kts | 211° |
| 2026-05-09 01:55 | -6.77492 | -76.23656 | 12712 ft | 293 kts | 211° |
| 2026-05-09 01:56 | -6.79220 | -76.24701 | 12427 ft | 287 kts | 211° |
| 2026-05-09 01:56 | -6.80920 | -76.25728 | 12052 ft | 286 kts | 211° |
| 2026-05-09 01:56 | -6.82605 | -76.26747 | 11681 ft | 284 kts | 212° |
| 2026-05-09 01:56 | -6.84285 | -76.27763 | 11308 ft | 282 kts | 212° |
| 2026-05-09 01:57 | -6.85970 | -76.28781 | 10938 ft | 280 kts | 212° |
| 2026-05-09 01:57 | -6.87522 | -76.29919 | 10526 ft | 279 kts | 227° |
| 2026-05-09 01:57 | -6.88519 | -76.31535 | 10294 ft | 265 kts | 252° |
| 2026-05-09 01:57 | -6.88865 | -76.33308 | 9976 ft | 257 kts | 270° |
| 2026-05-09 01:58 | -6.88568 | -76.35044 | 9452 ft | 256 kts | 293° |
| 2026-05-09 01:58 | -6.87645 | -76.36557 | 9002 ft | 252 kts | 311° |
| 2026-05-09 01:58 | -6.86337 | -76.37645 | 8672 ft | 242 kts | 331° |
| 2026-05-09 01:58 | -6.84767 | -76.38184 | 8193 ft | 240 kts | 351° |
| 2026-05-09 01:59 | -6.83117 | -76.38166 | 7733 ft | 238 kts | 9° |
| 2026-05-09 01:59 | -6.81565 | -76.37614 | 7277 ft | 237 kts | 28° |
| 2026-05-09 01:59 | -6.80353 | -76.36526 | 6776 ft | 238 kts | 54° |
| 2026-05-09 01:59 | -6.79486 | -76.35142 | 6415 ft | 229 kts | 51° |
| 2026-05-09 02:00 | -6.78399 | -76.34036 | 5993 ft | 220 kts | 35° |
| 2026-05-09 02:00 | -6.77055 | -76.33359 | 5630 ft | 208 kts | 19° |
| 2026-05-09 02:00 | -6.75719 | -76.33164 | 5623 ft | 192 kts | 355° |
| 2026-05-09 02:00 | -6.74378 | -76.33271 | 5579 ft | 196 kts | 355° |
| 2026-05-09 02:01 | -6.73011 | -76.33386 | 5206 ft | 196 kts | 352° |
| 2026-05-09 02:01 | -6.71685 | -76.33598 | 4837 ft | 191 kts | 350° |
| 2026-05-09 02:01 | -6.70380 | -76.33824 | 4601 ft | 188 kts | 350° |
| 2026-05-09 02:01 | -6.69096 | -76.34054 | 4603 ft | 191 kts | 350° |
| 2026-05-09 02:02 | -6.67781 | -76.34290 | 4550 ft | 193 kts | 350° |
| 2026-05-09 02:02 | -6.66462 | -76.34528 | 4241 ft | 194 kts | 350° |
| 2026-05-09 02:02 | -6.65164 | -76.34761 | 3918 ft | 187 kts | 350° |
| 2026-05-09 02:02 | -6.63889 | -76.34991 | 3723 ft | 187 kts | 351° |
| 2026-05-09 02:03 | -6.62660 | -76.35212 | 3594 ft | 165 kts | 351° |
| 2026-05-09 02:03 | -6.61581 | -76.35407 | 3420 ft | 156 kts | 351° |
| 2026-05-09 02:03 | -6.60520 | -76.35597 | 3235 ft | 155 kts | 351° |
| 2026-05-09 02:03 | -6.59457 | -76.35788 | 2998 ft | 155 kts | 351° |
| 2026-05-09 02:04 | -6.58397 | -76.35980 | 2689 ft | 156 kts | 351° |
| 2026-05-09 02:04 | -6.57341 | -76.36150 | 2210 ft | 154 kts | 353° |
| 2026-05-09 02:04 | -6.56311 | -76.36311 | 1737 ft | 150 kts | 350° |
| 2026-05-09 02:04 | -6.55286 | -76.36538 | 1391 ft | 152 kts | 348° |
| 2026-05-09 02:05 | -6.54243 | -76.36748 | 1262 ft | 155 kts | 351° |
| 2026-05-09 02:05 | -6.53174 | -76.36916 | 1081 ft | 154 kts | 351° |
| 2026-05-09 02:05 | -6.52126 | -76.37106 | 866 ft | 154 kts | 349° |
| 2026-05-09 02:05 | -6.51122 | -76.37283 | 821 ft | 123 kts | 349° |
| 2026-05-09 02:06 | -6.50562 | -76.37384 | 838 ft | 48 kts | 351° |
| 2026-05-09 02:06 | -6.50331 | -76.37422 | 846 ft | 26 kts | 349° |
| 2026-05-09 02:06 | -6.50167 | -76.37452 | 852 ft | 21 kts | 351° |
| 2026-05-09 02:07 | -6.49942 | -76.37492 | 860 ft | 13 kts | 349° |
| 2026-05-09 02:07 | -6.49838 | -76.37512 | 862 ft | 15 kts | 349° |
| 2026-05-09 02:07 | -6.49747 | -76.37543 | 862 ft | 12 kts | 306° |
| 2026-05-09 02:07 | -6.49754 | -76.37624 | 862 ft | 10 kts | 222° |
| 2026-05-09 02:08 | -6.49847 | -76.37620 | 861 ft | 15 kts | 171° |
| 2026-05-09 02:08 | -6.49960 | -76.37601 | 859 ft | 18 kts | 169° |
| 2026-05-09 02:08 | -6.50091 | -76.37577 | 855 ft | 19 kts | 171° |
| 2026-05-09 02:08 | -6.50239 | -76.37551 | 850 ft | 23 kts | 169° |
| 2026-05-09 02:09 | -6.50407 | -76.37520 | 845 ft | 24 kts | 171° |
| 2026-05-09 02:09 | -6.50574 | -76.37490 | 840 ft | 24 kts | 169° |
| 2026-05-09 02:09 | -6.50747 | -76.37460 | 835 ft | 25 kts | 169° |
| 2026-05-09 02:09 | -6.50882 | -76.37434 | 831 ft | 0 kts | 171° |
| 2026-05-09 02:10 | -6.50885 | -76.37434 | 831 ft | 0 kts | 170° |
| 2026-05-09 02:10 | -6.50891 | -76.37415 | 831 ft | 9 kts | 88° |
| 2026-05-09 02:10 | -6.50880 | -76.37347 | 829 ft | 6 kts | 102° |
| 2026-05-09 02:10 | -6.50941 | -76.37303 | 827 ft | 14 kts | 162° |
| 2026-05-09 02:11 | -6.51056 | -76.37283 | 823 ft | 19 kts | 172° |
| 2026-05-09 02:11 | -6.51212 | -76.37257 | 816 ft | 26 kts | 168° |
| 2026-05-09 02:11 | -6.51390 | -76.37227 | 810 ft | 25 kts | 172° |
| 2026-05-09 02:11 | -6.51579 | -76.37196 | 806 ft | 29 kts | 170° |
| 2026-05-09 02:12 | -6.51788 | -76.37157 | 801 ft | 28 kts | 171° |
| 2026-05-09 02:12 | -6.51927 | -76.37135 | 796 ft | 15 kts | 172° |
| 2026-05-09 02:12 | -6.52017 | -76.37144 | 793 ft | 9 kts | 226° |
| 2026-05-09 02:12 | -6.52037 | -76.37201 | 793 ft | 4 kts | 260° |
| 2026-05-09 02:13 | -6.52039 | -76.37211 | 793 ft | 0 kts | 261° |